createdAt,value
2022-08-17T00:02:26.131Z,2.30
2022-08-17T00:05:39.017Z,2.30
2022-08-17T00:08:50.524Z,2.30
2022-08-17T00:12:41.114Z,2.53
2022-08-17T00:15:16.336Z,2.53
2022-08-17T00:19:01.850Z,2.17
2022-08-17T00:22:31.863Z,2.40
2022-08-17T00:25:13.112Z,2.38
2022-08-17T00:28:16.810Z,2.28
2022-08-17T00:31:20.266Z,2.35
2022-08-17T00:34:22.685Z,2.40
2022-08-17T00:37:32.108Z,2.80
2022-08-17T00:40:44.274Z,2.42
2022-08-17T00:43:56.253Z,2.47
2022-08-17T00:46:58.585Z,3.10
2022-08-17T00:50:01.215Z,2.42
2022-08-17T00:53:05.103Z,2.70
2022-08-17T00:56:12.012Z,2.28
2022-08-17T00:59:17.791Z,2.65
2022-08-17T01:02:20.604Z,2.60
2022-08-17T01:05:26.821Z,2.47
2022-08-17T01:08:32.122Z,2.57
2022-08-17T01:11:37.247Z,2.38
2022-08-17T01:14:40.417Z,2.58
2022-08-17T01:17:46.274Z,2.40
2022-08-17T01:20:55.141Z,2.72
2022-08-17T01:23:57.711Z,2.37
2022-08-17T01:27:00.387Z,2.50
2022-08-17T01:30:58.561Z,2.40
2022-08-17T01:33:31.558Z,2.30
2022-08-17T01:36:34.401Z,2.35
2022-08-17T01:39:43.952Z,2.33
2022-08-17T01:42:51.933Z,2.20
2022-08-17T01:46:03.358Z,2.65
2022-08-17T01:49:09.181Z,2.50
2022-08-17T01:52:12.866Z,2.67
2022-08-17T01:55:22.487Z,2.50
2022-08-17T01:58:28.424Z,2.60
2022-08-17T02:01:32.910Z,2.70
2022-08-17T02:04:35.436Z,2.30
2022-08-17T02:07:59.848Z,2.78
2022-08-17T02:11:00.625Z,2.60
2022-08-17T02:14:05.204Z,2.30
2022-08-17T02:17:07.709Z,2.50
2022-08-17T02:20:10.733Z,2.53
2022-08-17T02:23:13.821Z,2.40
2022-08-17T02:26:24.197Z,2.50
2022-08-17T02:29:34.819Z,2.38
2022-08-17T02:32:37.481Z,2.13
2022-08-17T02:35:46.768Z,2.50
2022-08-17T02:38:49.118Z,2.28
2022-08-17T02:42:01.107Z,2.60
2022-08-17T02:45:07.729Z,2.75
2022-08-17T02:48:10.957Z,2.45
2022-08-17T02:51:13.721Z,2.70
2022-08-17T02:54:39.900Z,2.60
2022-08-17T02:57:39.393Z,2.70
2022-08-17T03:00:44.240Z,2.88
2022-08-17T03:03:46.663Z,2.42
2022-08-17T03:06:49.084Z,2.50
2022-08-17T03:09:54.020Z,2.40
2022-08-17T03:12:56.780Z,2.17
2022-08-17T03:15:59.309Z,2.78
2022-08-17T03:19:01.820Z,2.70
2022-08-17T03:22:47.939Z,2.40
2022-08-17T03:25:35.528Z,2.50
2022-08-17T03:28:39.315Z,2.40
2022-08-17T03:31:41.740Z,2.40
2022-08-17T03:34:44.104Z,2.50
2022-08-17T03:37:46.964Z,2.60
2022-08-17T03:40:59.967Z,2.53
2022-08-17T03:44:02.929Z,2.47
2022-08-17T03:47:23.751Z,2.35
2022-08-17T03:50:44.898Z,2.70
2022-08-17T03:54:12.061Z,2.85
2022-08-17T03:57:15.020Z,2.78
2022-08-17T04:00:17.859Z,3.03
2022-08-17T04:03:20.309Z,2.72
2022-08-17T04:06:22.707Z,3.05
2022-08-17T04:09:25.276Z,2.70
2022-08-17T04:12:31.106Z,2.88
2022-08-17T04:15:33.832Z,2.90
2022-08-17T04:18:36.189Z,2.70
2022-08-17T04:21:38.645Z,3.00
2022-08-17T04:24:41.001Z,3.00
2022-08-17T04:27:43.564Z,2.60
2022-08-17T04:30:47.421Z,3.10
2022-08-17T04:33:49.874Z,2.67
2022-08-17T04:36:52.932Z,2.35
2022-08-17T04:40:15.353Z,2.85
2022-08-17T04:43:22.907Z,2.97
2022-08-17T04:46:28.761Z,2.60
2022-08-17T04:49:32.605Z,2.75
2022-08-17T04:52:45.605Z,2.60
2022-08-17T04:55:48.493Z,2.78
2022-08-17T04:58:52.917Z,2.92
2022-08-17T05:01:55.231Z,2.70
2022-08-17T05:04:57.669Z,2.30
2022-08-17T05:08:02.818Z,3.20
2022-08-17T05:11:05.564Z,3.10
2022-08-17T05:14:07.971Z,2.65
2022-08-17T05:17:11.428Z,2.50
2022-08-17T05:20:13.973Z,2.40
2022-08-17T05:23:19.032Z,2.80
2022-08-17T05:26:26.340Z,2.80
2022-08-17T05:29:35.591Z,2.95
2022-08-17T05:32:40.318Z,2.90
2022-08-17T05:35:47.107Z,2.97
2022-08-17T05:38:50.637Z,2.72
2022-08-17T05:41:53.212Z,2.47
2022-08-17T05:44:58.054Z,2.40
2022-08-17T05:48:00.537Z,2.73
2022-08-17T05:51:37.611Z,2.55
2022-08-17T05:54:54.210Z,2.50
2022-08-17T05:58:15.197Z,2.80
2022-08-17T06:01:33.572Z,3.08
2022-08-17T06:05:00.419Z,2.97
2022-08-17T06:08:23.816Z,2.60
2022-08-17T06:11:35.325Z,2.75
2022-08-17T06:14:45.264Z,2.53
2022-08-17T06:17:57.512Z,2.60
2022-08-17T06:21:07.244Z,2.20
2022-08-17T06:24:27.570Z,2.67
2022-08-17T06:27:30.445Z,2.47
2022-08-17T06:30:59.407Z,2.70
2022-08-17T06:34:06.603Z,2.60
2022-08-17T06:38:34.963Z,2.70
2022-08-17T06:41:39.833Z,2.50
2022-08-17T06:44:55.593Z,2.78
2022-08-17T06:48:06.908Z,2.65
2022-08-17T06:51:23.094Z,2.45
2022-08-17T06:54:39.892Z,2.60
2022-08-17T06:57:50.079Z,2.63
2022-08-17T07:00:58.635Z,2.50
2022-08-17T07:04:15.513Z,2.80
2022-08-17T07:07:38.893Z,2.45
2022-08-17T07:10:46.209Z,2.60
2022-08-17T07:14:08.777Z,2.65
2022-08-17T07:17:14.819Z,3.03
2022-08-17T07:20:21.271Z,2.70
2022-08-17T07:23:37.877Z,2.40
2022-08-17T07:26:40.348Z,2.60
2022-08-17T07:29:47.619Z,2.83
2022-08-17T07:33:08.380Z,2.45
2022-08-17T07:36:29.559Z,2.65
2022-08-17T07:39:32.905Z,2.90
2022-08-17T07:42:35.297Z,2.63
2022-08-17T07:46:08.774Z,2.88
2022-08-17T07:49:11.259Z,2.92
2022-08-17T07:52:51.910Z,2.67
2022-08-17T07:55:54.908Z,3.00
2022-08-17T07:59:11.607Z,3.23
2022-08-17T08:02:43.299Z,3.40
2022-08-17T08:05:51.713Z,3.78
2022-08-17T08:08:56.182Z,2.90
2022-08-17T08:12:00.377Z,3.42
2022-08-17T08:15:19.625Z,3.37
2022-08-17T08:18:38.580Z,3.05
2022-08-17T08:22:29.598Z,3.53
2022-08-17T08:25:59.600Z,3.10
2022-08-17T08:29:39.681Z,3.38
2022-08-17T08:33:17.418Z,3.43
2022-08-17T08:36:58.144Z,3.00
2022-08-17T08:40:41.178Z,3.25
2022-08-17T08:43:53.123Z,3.30
2022-08-17T08:47:23.153Z,3.33
2022-08-17T08:50:38.458Z,3.10
2022-08-17T08:53:49.590Z,3.03
2022-08-17T09:00:34.057Z,3.17
2022-08-17T09:03:52.203Z,3.10
2022-08-17T09:07:10.628Z,3.03
2022-08-17T09:10:20.488Z,3.10
2022-08-17T09:13:42.644Z,3.20
2022-08-17T09:17:03.145Z,2.80
2022-08-17T09:20:11.424Z,2.95
2022-08-17T09:23:39.245Z,2.90
2022-08-17T09:26:52.096Z,2.70
2022-08-17T09:29:59.471Z,3.13
2022-08-17T09:33:07.131Z,2.65
2022-08-17T09:36:15.731Z,2.83
2022-08-17T09:39:33.257Z,2.90
2022-08-17T09:42:59.955Z,2.83
2022-08-17T09:46:09.339Z,3.00
2022-08-17T09:49:30.873Z,3.08
2022-08-17T09:52:33.541Z,2.63
2022-08-17T09:55:50.159Z,2.70
2022-08-17T09:59:03.425Z,2.65
2022-08-17T10:02:34.935Z,3.00
2022-08-17T10:06:01.197Z,2.80
2022-08-17T10:09:39.540Z,3.00
2022-08-17T10:12:50.396Z,2.47
2022-08-17T10:16:15.394Z,2.95
2022-08-17T10:19:33.116Z,2.70
2022-08-17T10:23:12.923Z,2.60
2022-08-17T10:26:21.460Z,2.83
2022-08-17T10:29:49.752Z,2.97
2022-08-17T10:33:02.871Z,2.67
2022-08-17T10:36:34.619Z,3.00
2022-08-17T10:39:52.657Z,2.58
2022-08-17T10:43:18.263Z,3.00
2022-08-17T10:46:39.976Z,3.27
2022-08-17T10:49:54.047Z,2.90
2022-08-17T10:52:56.863Z,2.80
2022-08-17T10:56:14.567Z,2.40
2022-08-17T10:59:35.285Z,2.60
2022-08-17T11:02:53.743Z,2.53
2022-08-17T11:06:06.608Z,2.67
2022-08-17T11:09:30.971Z,3.00
2022-08-17T11:13:06.694Z,2.78
2022-08-17T11:16:28.553Z,2.50
2022-08-17T11:19:59.589Z,2.40
2022-08-17T11:23:25.947Z,2.90
2022-08-17T11:26:34.732Z,2.60
2022-08-17T11:30:01.579Z,2.47
2022-08-17T11:33:27.452Z,2.50
2022-08-17T11:37:08.044Z,2.20
2022-08-17T11:40:22.499Z,2.20
2022-08-17T11:43:46.793Z,2.28
2022-08-17T11:47:19.905Z,2.13
2022-08-17T11:51:05.535Z,2.28
2022-08-17T11:54:32.293Z,2.33
2022-08-17T11:57:41.235Z,2.30
2022-08-17T12:00:49.977Z,2.67
2022-08-17T12:03:58.898Z,2.20
2022-08-17T12:07:17.125Z,2.47
2022-08-17T12:10:23.762Z,2.33
2022-08-17T12:13:27.420Z,2.30
2022-08-17T12:16:37.651Z,2.15
2022-08-17T12:19:42.524Z,1.85
2022-08-17T12:22:56.555Z,2.20
2022-08-17T12:26:14.117Z,2.03
2022-08-17T12:29:35.573Z,2.42
2022-08-17T12:32:40.900Z,1.92
2022-08-17T12:35:45.156Z,1.88
2022-08-17T12:39:13.878Z,2.45
2022-08-17T12:42:33.137Z,2.03
2022-08-17T12:45:39.781Z,2.10
2022-08-17T12:48:58.709Z,1.95
2022-08-17T12:52:11.243Z,2.17
2022-08-17T12:55:23.243Z,2.00
2022-08-17T12:58:32.454Z,2.20
2022-08-17T13:01:38.887Z,2.22
2022-08-17T13:04:41.391Z,2.00
2022-08-17T13:07:44.686Z,2.13
2022-08-17T13:11:04.286Z,2.00
2022-08-17T13:14:10.965Z,1.90
2022-08-17T13:17:20.557Z,1.90
2022-08-17T13:20:23.020Z,2.10
2022-08-17T13:23:33.797Z,2.10
2022-08-17T13:27:01.217Z,2.35
2022-08-17T13:30:12.486Z,2.07
2022-08-17T13:33:33.999Z,1.85
2022-08-17T13:36:47.936Z,2.40
2022-08-17T13:39:54.880Z,2.10
2022-08-17T13:42:57.696Z,2.00
2022-08-17T13:46:16.406Z,2.40
2022-08-17T13:49:21.047Z,2.20
2022-08-17T13:52:39.178Z,2.22
2022-08-17T13:55:48.826Z,1.95
2022-08-17T13:59:00.899Z,2.00
2022-08-17T14:02:04.929Z,2.10
2022-08-17T14:05:07.640Z,2.00
2022-08-17T14:08:15.794Z,2.10
2022-08-17T14:11:18.579Z,2.00
2022-08-17T14:14:23.391Z,2.00
2022-08-17T14:17:28.875Z,1.97
2022-08-17T14:20:31.483Z,1.98
2022-08-17T14:23:35.193Z,1.98
2022-08-17T14:26:37.840Z,2.20
2022-08-17T14:29:41.318Z,1.80
2022-08-17T14:32:45.368Z,1.80
2022-08-17T14:35:47.724Z,2.10
2022-08-17T14:38:50.559Z,2.20
2022-08-17T14:41:53.129Z,2.00
2022-08-17T14:44:56.733Z,2.10
2022-08-17T14:47:59.170Z,1.87
2022-08-17T14:51:01.687Z,1.70
2022-08-17T14:54:04.576Z,1.98
2022-08-17T14:57:25.808Z,1.70
2022-08-17T15:00:29.935Z,1.90
2022-08-17T15:03:32.340Z,2.10
2022-08-17T15:06:34.693Z,2.15
2022-08-17T15:09:37.108Z,2.03
2022-08-17T15:12:40.886Z,2.00
2022-08-17T15:15:43.344Z,2.05
2022-08-17T15:18:45.747Z,2.00
2022-08-17T15:21:48.181Z,1.90
2022-08-17T15:24:50.561Z,1.90
2022-08-17T15:27:54.136Z,1.90
2022-08-17T15:30:56.525Z,1.83
2022-08-17T15:33:59.198Z,1.80
2022-08-17T15:37:01.557Z,2.10
2022-08-17T15:40:05.975Z,2.10
2022-08-17T15:43:11.684Z,2.10
2022-08-17T15:46:19.493Z,1.95
2022-08-17T15:49:21.924Z,2.00
2022-08-17T15:52:27.058Z,2.03
2022-08-17T15:55:31.255Z,2.00
2022-08-17T15:58:35.181Z,1.73
2022-08-17T16:03:01.430Z,1.90
2022-08-17T16:05:10.088Z,1.87
2022-08-17T16:08:15.951Z,2.13
2022-08-17T16:11:22.740Z,2.10
2022-08-17T16:14:34.013Z,1.98
2022-08-17T16:17:39.561Z,2.00
2022-08-17T16:20:43.843Z,2.03
2022-08-17T16:23:49.272Z,2.40
2022-08-17T16:26:51.791Z,2.20
2022-08-17T16:29:54.260Z,2.03
2022-08-17T16:32:59.909Z,2.17
2022-08-17T16:36:02.385Z,2.10
2022-08-17T16:39:04.884Z,1.95
2022-08-17T16:42:29.297Z,2.20
2022-08-17T16:45:40.031Z,1.80
2022-08-17T16:48:44.546Z,1.90
2022-08-17T16:51:47.524Z,1.93
2022-08-17T16:54:50.177Z,1.80
2022-08-17T16:57:52.517Z,1.98
2022-08-17T17:00:59.858Z,1.73
2022-08-17T17:04:05.169Z,2.10
2022-08-17T17:07:24.501Z,1.87
2022-08-17T17:10:37.338Z,1.90
2022-08-17T17:13:47.309Z,2.20
2022-08-17T17:16:57.725Z,2.03
2022-08-17T17:20:03.131Z,2.10
2022-08-17T17:23:11.696Z,2.00
2022-08-17T17:26:17.829Z,2.20
2022-08-17T17:29:48.216Z,2.30
2022-08-17T17:32:55.872Z,2.10
2022-08-17T17:36:00.636Z,2.30
2022-08-17T17:39:43.868Z,2.00
2022-08-17T17:42:46.780Z,2.38
2022-08-17T17:45:56.176Z,2.40
2022-08-17T17:48:59.454Z,2.28
2022-08-17T17:52:19.314Z,2.40
2022-08-17T17:55:35.377Z,2.20
2022-08-17T17:59:14.641Z,2.22
2022-08-17T18:02:44.599Z,2.20
2022-08-17T18:06:18.679Z,2.22
2022-08-17T18:09:35.596Z,2.70
2022-08-17T18:12:54.316Z,2.03
2022-08-17T18:16:00.754Z,2.40
2022-08-17T18:19:03.432Z,1.92
2022-08-17T18:22:14.723Z,1.90
2022-08-17T18:25:44.714Z,2.10
2022-08-17T18:28:51.054Z,2.00
2022-08-17T18:32:31.978Z,2.28
2022-08-17T18:35:35.255Z,1.70
2022-08-17T18:38:43.026Z,1.80
2022-08-17T18:41:48.392Z,1.98
2022-08-17T18:44:54.856Z,2.10
2022-08-17T18:47:57.908Z,2.10
2022-08-17T18:51:26.280Z,2.17
2022-08-17T18:55:11.029Z,2.10
2022-08-17T18:58:20.185Z,2.28
2022-08-17T19:01:41.919Z,2.20
2022-08-17T19:05:01.324Z,2.15
2022-08-17T19:08:22.604Z,2.42
2022-08-17T19:11:32.007Z,1.90
2022-08-17T19:14:34.611Z,2.33
2022-08-17T19:17:55.256Z,1.90
2022-08-17T19:21:10.213Z,2.38
2022-08-17T19:24:24.761Z,2.00
2022-08-17T19:28:01.698Z,2.30
2022-08-17T19:31:14.140Z,2.17
2022-08-17T19:34:30.352Z,2.40
2022-08-17T19:37:39.398Z,2.70
2022-08-17T19:41:03.189Z,2.40
2022-08-17T19:44:07.026Z,2.58
2022-08-17T19:47:30.743Z,2.28
2022-08-17T19:50:49.697Z,2.07
2022-08-17T19:54:15.121Z,2.60
2022-08-17T19:57:30.123Z,2.50
2022-08-17T20:00:38.586Z,2.35
2022-08-17T20:04:05.902Z,2.22
2022-08-17T20:07:17.794Z,2.40
2022-08-17T20:10:29.889Z,2.70
2022-08-17T20:13:45.293Z,2.35
2022-08-17T20:16:48.298Z,2.22
2022-08-17T20:20:01.209Z,2.38
2022-08-17T20:23:20.948Z,2.53
2022-08-17T20:26:58.495Z,2.22
2022-08-17T20:30:10.438Z,2.53
2022-08-17T20:33:39.031Z,2.22
2022-08-17T20:37:01.597Z,2.75
2022-08-17T20:40:04.124Z,2.57
2022-08-17T20:43:34.440Z,3.38
2022-08-17T20:46:36.753Z,2.20
2022-08-17T20:49:49.422Z,2.70
2022-08-17T20:53:00.355Z,2.15
2022-08-17T20:56:02.850Z,2.30
2022-08-17T20:59:05.234Z,2.35
2022-08-17T21:02:18.641Z,2.30
2022-08-17T21:05:45.839Z,2.35
2022-08-17T21:09:12.775Z,2.78
2022-08-17T21:12:41.557Z,2.83
2022-08-17T21:15:55.492Z,2.28
2022-08-17T21:19:17.011Z,2.30
2022-08-17T21:22:57.786Z,2.83
2022-08-17T21:26:13.796Z,2.50
2022-08-17T21:29:31.169Z,2.50
2022-08-17T21:32:37.563Z,2.20
2022-08-17T21:35:58.674Z,2.78
2022-08-17T21:39:10.460Z,2.35
2022-08-17T21:42:16.060Z,2.80
2022-08-17T21:45:27.272Z,2.50
2022-08-17T21:48:40.239Z,2.65
2022-08-17T21:51:50.117Z,2.60
2022-08-17T21:54:56.200Z,2.78
2022-08-17T21:58:13.848Z,2.60
2022-08-17T22:01:25.857Z,2.90
2022-08-17T22:04:39.115Z,2.90
2022-08-17T22:07:47.317Z,2.90
2022-08-17T22:10:51.427Z,2.80
2022-08-17T22:13:57.302Z,2.58
2022-08-17T22:17:15.464Z,2.70
2022-08-17T22:20:20.787Z,2.58
2022-08-17T22:23:43.876Z,2.85
2022-08-17T22:27:08.124Z,2.45
2022-08-17T22:30:25.709Z,2.80
2022-08-17T22:33:44.064Z,2.80
2022-08-17T22:36:46.486Z,2.70
2022-08-17T22:39:58.991Z,2.80
2022-08-17T22:43:03.603Z,2.30
2022-08-17T22:46:08.141Z,2.65
2022-08-17T22:49:10.584Z,2.40
2022-08-17T22:52:18.740Z,2.63
2022-08-17T22:55:39.486Z,2.60
2022-08-17T22:59:18.281Z,2.80
2022-08-17T23:02:27.083Z,2.88
2022-08-17T23:05:29.564Z,2.63
2022-08-17T23:08:34.952Z,2.90
2022-08-17T23:11:49.348Z,2.60
2022-08-17T23:14:58.504Z,2.85
2022-08-17T23:18:04.882Z,2.88
2022-08-17T23:21:07.807Z,2.70
2022-08-17T23:24:11.979Z,2.90
2022-08-17T23:27:14.487Z,3.05
2022-08-17T23:30:17.925Z,2.80
2022-08-17T23:33:30.164Z,2.72
2022-08-17T23:36:32.636Z,2.87
2022-08-17T23:39:35.377Z,2.83
2022-08-17T23:42:46.179Z,2.83
2022-08-17T23:45:48.953Z,2.85
2022-08-17T23:48:54.064Z,3.17
2022-08-17T23:51:57.935Z,3.07
2022-08-17T23:55:00.398Z,2.92
2022-08-17T23:58:04.841Z,2.80
